WetterOnline ( https://www.wetteronline.ch )

Wetter aktuell Kaltennordheim

Aktuelles Wetter: Meiningen (453m)

6-stündlich | Neueste Meldungen
Ortszeit Temperatur Wetter
Di, 23.04. 20:00 16.4° C bedeckt
Di, 23.04. 14:00 18.8° C fast wolkenlos
Di, 23.04. 8:00 9.9° C wolkenlos
Di, 23.04. 2:00 9.3° C fast wolkenlos
Mo, 22.04. 20:00 15.0° C wolkig
Mo, 22.04. 14:00 19.6° C leicht bewölkt
Mo, 22.04. 8:00 9.7° C wolkenlos
Mo, 22.04. 2:00 12.1° C wolkenlos
Ortszeit Temperatur Wetter
Di, 23.04. 20:30 16.0° C bedeckt
Di, 23.04. 20:10 16.1° C bedeckt
Di, 23.04. 20:00 16.4° C bedeckt
Di, 23.04. 19:50 16.4° C bedeckt
Di, 23.04. 19:40 16.6° C bedeckt
Di, 23.04. 19:30 16.9° C bedeckt
Di, 23.04. 19:00 17.3° C bedeckt
Di, 23.04. 18:30 18.0° C bedeckt
Di, 23.04. 18:00 18.0° C bedeckt
Di, 23.04. 17:30 18.0° C bewölkt
Ortszeit Relative Feuchte Sichtweite
Di, 23.04. 20:00 51% 40 km
Di, 23.04. 14:00 39% 40 km
Di, 23.04. 8:00 60% 45 km
Di, 23.04. 2:00 55% 65 km
Mo, 22.04. 20:00 37% 65 km
Mo, 22.04. 14:00 28% 60 km
Mo, 22.04. 8:00 58% 65 km
Mo, 22.04. 2:00 44% 65 km
Ortszeit Relative Feuchte Sichtweite
Di, 23.04. 20:30 53% 35 km
Di, 23.04. 20:10 52% -
Di, 23.04. 20:00 51% 40 km
Di, 23.04. 19:50 51% -
Di, 23.04. 19:40 50% -
Di, 23.04. 19:30 50% 40 km
Di, 23.04. 19:00 48% 35 km
Di, 23.04. 18:30 45% 35 km
Di, 23.04. 18:00 45% 40 km
Di, 23.04. 17:30 44% 45 km
Ortszeit Niederschlagsmenge Niederschlagsart
Di, 23.04. 20:00 0.0 l/m2 in 12 Std. -
Di, 23.04. 14:00 0.0 l/m2 in 6 Std. -
Di, 23.04. 8:00 0.0 l/m2 in 12 Std. -
Di, 23.04. 2:00 0.0 l/m2 in 6 Std. -
Mo, 22.04. 20:00 0.0 l/m2 in 12 Std. -
Mo, 22.04. 14:00 0.0 l/m2 in 6 Std. -
Mo, 22.04. 8:00 0.0 l/m2 in 12 Std. -
Mo, 22.04. 2:00 0.0 l/m2 in 6 Std. -
Ortszeit Niederschlagsmenge Niederschlagsart
Di, 23.04. 20:30 0.0 l/m2 in 1 Std. -
Di, 23.04. 20:10 keine Meldung -
Di, 23.04. 20:00 0.0 l/m2 in 1 Std. -
Di, 23.04. 19:50 keine Meldung -
Di, 23.04. 19:40 keine Meldung -
Di, 23.04. 19:30 0.0 l/m2 in 1 Std. -
Di, 23.04. 19:00 0.0 l/m2 in 1 Std. -
Di, 23.04. 18:30 0.0 l/m2 in 1 Std. -
Di, 23.04. 18:00 0.0 l/m2 in 1 Std. -
Di, 23.04. 17:30 0.0 l/m2 in 1 Std. -
Ortszeit Stärke Spitze Richtung
km/h Bft. km/h Grad Sektor
Di, 23.04. 20:00 19 3 43 130° SO
Di, 23.04. 14:00 22 4 43 130° SO
Di, 23.04. 8:00 14 3 29 80° O
Di, 23.04. 2:00 4 1 43 20° N
Mo, 22.04. 20:00 25 4 47 60° NO
Mo, 22.04. 14:00 25 4 40 50° NO
Mo, 22.04. 8:00 4 1 11 20° N
Mo, 22.04. 2:00 6 1 28 340° N
Ortszeit Stärke Spitze Richtung
km/h Bft. km/h Grad Sektor
Di, 23.04. 20:30 17 3 30 120° SO
Di, 23.04. 20:10 14 3 - 130° SO
Di, 23.04. 20:00 19 3 33 130° SO
Di, 23.04. 19:50 19 3 - 130° SO
Di, 23.04. 19:40 22 4 - 130° SO
Di, 23.04. 19:30 17 3 33 130° SO
Di, 23.04. 19:00 22 4 39 140° SO
Di, 23.04. 18:30 18 3 32 140° SO
Di, 23.04. 18:00 18 3 36 110° O
Di, 23.04. 17:30 18 3 36 110° O
Ortszeit Untergrenze Bedeckung Gattung
total tief tief mittel hoch
Di, 23.04. 20:00 3600 m 8/8 8/8 - - -
Di, 23.04. 14:00 9000 m 1/8 0/8 - - -
Di, 23.04. 8:00 - 0/8 0/8 - - -
Di, 23.04. 2:00 9000 m 1/8 0/8 - - -
Mo, 22.04. 20:00 9000 m 8/8 0/8 - - -
Mo, 22.04. 14:00 10500 m 7/8 0/8 - - -
Mo, 22.04. 8:00 - 0/8 0/8 - - -
Mo, 22.04. 2:00 - 0/8 0/8 - - -
Ortszeit Bedeckungsgrad in Achtel und Wolkenuntergrenze
Di, 23.04. 20:30 8(3600m) 8(6300m)
Di, 23.04. 20:10 8(3600m)
Di, 23.04. 20:00 8(3600m)
Di, 23.04. 19:50 8(3600m)
Di, 23.04. 19:40 8(3300m)
Di, 23.04. 19:30 8(3300m)
Di, 23.04. 19:00 8(3300m)
Di, 23.04. 18:30 8(3300m) 8(3900m)
Di, 23.04. 18:00 7(3300m) 8(3600m)
Di, 23.04. 17:30 7(3300m)
Ortszeit Luftdruck NN (hPa) Tendenz (hPa in 3 Std.)
Di, 23.04. 20:00 1000 - 0,1
Di, 23.04. 14:00 1000 - 0,9
Di, 23.04. 8:00 1004 - 1,3
Di, 23.04. 2:00 1008 - 1,7
Mo, 22.04. 20:00 1008 - 0,3
Mo, 22.04. 14:00 1010 - 2,0
Mo, 22.04. 8:00 1015 - 0,7
Mo, 22.04. 2:00 1017 - 0,9
Ortszeit Luftdruck NN (hPa) Tendenz (hPa in 3 Std.)
Di, 23.04. 20:30 1000 + 0,1
Di, 23.04. 20:10 1000 keine Meldung
Di, 23.04. 20:00 1000 - 0,1
Di, 23.04. 19:50 1000 keine Meldung
Di, 23.04. 19:40 1000 keine Meldung
Di, 23.04. 19:30 1000 - 0,3
Di, 23.04. 19:00 1000 - 0,1
Di, 23.04. 18:30 1000 - 0,2
Di, 23.04. 18:00 1000 - 0,5
Di, 23.04. 17:30 1000 - 0,5
Ortszeit Schneehöhe (cm)
Di, 23.04. 20:00 0
Di, 23.04. 14:00 0
Di, 23.04. 8:00 0
Di, 23.04. 2:00 0
Mo, 22.04. 20:00 0
Mo, 22.04. 14:00 0
Mo, 22.04. 8:00 0
Mo, 22.04. 2:00 0
Ortszeit Schneehöhe (cm)
Di, 23.04. 20:30 0
Di, 23.04. 20:10 0
Di, 23.04. 20:00 0
Di, 23.04. 19:50 0
Di, 23.04. 19:40 0
Di, 23.04. 19:30 0
Di, 23.04. 19:00 0
Di, 23.04. 18:30 0
Di, 23.04. 18:00 0
Di, 23.04. 17:30 0
Link zu dieser Seite / Seite empfehlen

Das Wetter in ...